sensor_id;sensor_type;location;lat;lon;timestamp;temperature;humidity
71529;SHT31;59350;51.520;5.988;2022-07-23T00:00:43;17.54;76.95
71529;SHT31;59350;51.520;5.988;2022-07-23T00:03:08;17.47;76.78
71529;SHT31;59350;51.520;5.988;2022-07-23T00:05:34;17.43;77.10
71529;SHT31;59350;51.520;5.988;2022-07-23T00:07:59;17.36;77.58
71529;SHT31;59350;51.520;5.988;2022-07-23T00:10:25;17.30;77.74
71529;SHT31;59350;51.520;5.988;2022-07-23T00:12:50;17.16;77.78
71529;SHT31;59350;51.520;5.988;2022-07-23T00:15:16;17.12;78.28
71529;SHT31;59350;51.520;5.988;2022-07-23T00:17:41;17.04;78.82
71529;SHT31;59350;51.520;5.988;2022-07-23T00:20:07;16.88;79.03
71529;SHT31;59350;51.520;5.988;2022-07-23T00:22:32;16.82;79.29
71529;SHT31;59350;51.520;5.988;2022-07-23T00:24:58;16.78;79.64
71529;SHT31;59350;51.520;5.988;2022-07-23T00:27:23;16.77;80.20
71529;SHT31;59350;51.520;5.988;2022-07-23T00:29:49;16.70;80.14
71529;SHT31;59350;51.520;5.988;2022-07-23T05:00:44;15.34;86.10
71529;SHT31;59350;51.520;5.988;2022-07-23T05:03:10;15.52;85.85
71529;SHT31;59350;51.520;5.988;2022-07-23T05:05:35;15.72;84.41
71529;SHT31;59350;51.520;5.988;2022-07-23T05:08:01;15.73;84.46
71529;SHT31;59350;51.520;5.988;2022-07-23T05:10:26;15.77;84.47
71529;SHT31;59350;51.520;5.988;2022-07-23T05:12:52;15.82;84.19
71529;SHT31;59350;51.520;5.988;2022-07-23T05:15:17;15.82;84.37
71529;SHT31;59350;51.520;5.988;2022-07-23T05:17:42;15.83;84.32
71529;SHT31;59350;51.520;5.988;2022-07-23T05:20:08;15.89;83.83
71529;SHT31;59350;51.520;5.988;2022-07-23T05:22:33;15.92;84.14
71529;SHT31;59350;51.520;5.988;2022-07-23T05:24:59;15.86;83.08
71529;SHT31;59350;51.520;5.988;2022-07-23T05:27:24;15.89;83.19
71529;SHT31;59350;51.520;5.988;2022-07-23T05:29:49;15.99;82.88
71529;SHT31;59350;51.520;5.988;2022-07-23T05:32:15;15.92;83.20
71529;SHT31;59350;51.520;5.988;2022-07-23T05:34:40;15.93;83.52
71529;SHT31;59350;51.520;5.988;2022-07-23T05:37:05;16.02;83.66
71529;SHT31;59350;51.520;5.988;2022-07-23T05:39:31;16.02;83.13
71529;SHT31;59350;51.520;5.988;2022-07-23T05:41:56;16.23;83.28
71529;SHT31;59350;51.520;5.988;2022-07-23T05:44:22;16.20;82.65
71529;SHT31;59350;51.520;5.988;2022-07-23T05:46:47;16.34;81.88
71529;SHT31;59350;51.520;5.988;2022-07-23T05:49:12;16.36;81.90
71529;SHT31;59350;51.520;5.988;2022-07-23T05:51:38;16.40;82.31
71529;SHT31;59350;51.520;5.988;2022-07-23T05:54:03;16.56;81.36
71529;SHT31;59350;51.520;5.988;2022-07-23T05:56:28;16.57;80.91
71529;SHT31;59350;51.520;5.988;2022-07-23T05:58:54;16.61;81.05
71529;SHT31;59350;51.520;5.988;2022-07-23T06:01:19;16.60;80.98
71529;SHT31;59350;51.520;5.988;2022-07-23T06:03:44;16.72;80.30
71529;SHT31;59350;51.520;5.988;2022-07-23T06:06:10;16.85;79.53
71529;SHT31;59350;51.520;5.988;2022-07-23T06:08:35;16.81;79.66
71529;SHT31;59350;51.520;5.988;2022-07-23T06:11:00;16.79;79.75
71529;SHT31;59350;51.520;5.988;2022-07-23T06:13:26;16.87;78.12
71529;SHT31;59350;51.520;5.988;2022-07-23T06:15:51;16.82;78.76
71529;SHT31;59350;51.520;5.988;2022-07-23T06:18:16;16.88;79.58
71529;SHT31;59350;51.520;5.988;2022-07-23T06:20:42;16.96;78.56
71529;SHT31;59350;51.520;5.988;2022-07-23T06:23:07;16.95;77.76
71529;SHT31;59350;51.520;5.988;2022-07-23T06:25:32;16.94;78.63
71529;SHT31;59350;51.520;5.988;2022-07-23T06:27:57;16.96;79.06
71529;SHT31;59350;51.520;5.988;2022-07-23T06:30:23;17.05;79.41
71529;SHT31;59350;51.520;5.988;2022-07-23T06:32:48;17.15;78.42
71529;SHT31;59350;51.520;5.988;2022-07-23T06:35:15;17.28;78.41
71529;SHT31;59350;51.520;5.988;2022-07-23T06:37:40;17.22;77.43
71529;SHT31;59350;51.520;5.988;2022-07-23T06:40:06;17.26;77.58
71529;SHT31;59350;51.520;5.988;2022-07-23T06:42:32;17.39;77.16
71529;SHT31;59350;51.520;5.988;2022-07-23T06:44:57;17.54;77.77
71529;SHT31;59350;51.520;5.988;2022-07-23T06:47:23;17.62;76.55
71529;SHT31;59350;51.520;5.988;2022-07-23T06:49:48;17.83;75.23
71529;SHT31;59350;51.520;5.988;2022-07-23T06:52:14;18.27;74.37
71529;SHT31;59350;51.520;5.988;2022-07-23T06:54:39;19.50;72.34
71529;SHT31;59350;51.520;5.988;2022-07-23T06:57:04;20.85;64.68
71529;SHT31;59350;51.520;5.988;2022-07-23T06:59:30;22.18;61.02
71529;SHT31;59350;51.520;5.988;2022-07-23T07:01:55;23.17;57.08
71529;SHT31;59350;51.520;5.988;2022-07-23T07:04:21;23.54;54.71
71529;SHT31;59350;51.520;5.988;2022-07-23T07:06:47;23.91;52.54
71529;SHT31;59350;51.520;5.988;2022-07-23T07:09:12;24.28;51.96
71529;SHT31;59350;51.520;5.988;2022-07-23T07:11:37;24.83;51.18
71529;SHT31;59350;51.520;5.988;2022-07-23T07:14:03;25.07;50.37
71529;SHT31;59350;51.520;5.988;2022-07-23T07:16:32;24.25;49.98
71529;SHT31;59350;51.520;5.988;2022-07-23T07:18:58;24.69;50.36
71529;SHT31;59350;51.520;5.988;2022-07-23T07:21:23;24.88;49.03
71529;SHT31;59350;51.520;5.988;2022-07-23T07:23:48;25.32;47.13
71529;SHT31;59350;51.520;5.988;2022-07-23T07:26:13;25.79;47.15
71529;SHT31;59350;51.520;5.988;2022-07-23T07:28:39;25.79;45.46
71529;SHT31;59350;51.520;5.988;2022-07-23T07:31:04;26.28;45.38
71529;SHT31;59350;51.520;5.988;2022-07-23T07:33:30;26.16;46.15
71529;SHT31;59350;51.520;5.988;2022-07-23T07:35:55;26.30;46.68
71529;SHT31;59350;51.520;5.988;2022-07-23T07:38:20;26.96;46.05
71529;SHT31;59350;51.520;5.988;2022-07-23T07:40:46;27.49;44.26
71529;SHT31;59350;51.520;5.988;2022-07-23T07:43:11;26.84;43.76
71529;SHT31;59350;51.520;5.988;2022-07-23T07:45:37;27.22;43.54
71529;SHT31;59350;51.520;5.988;2022-07-23T07:48:02;26.81;43.49
71529;SHT31;59350;51.520;5.988;2022-07-23T07:50:27;27.81;43.73
71529;SHT31;59350;51.520;5.988;2022-07-23T07:52:53;27.91;41.95
71529;SHT31;59350;51.520;5.988;2022-07-23T07:55:18;28.19;40.60
71529;SHT31;59350;51.520;5.988;2022-07-23T07:57:43;28.28;40.68
71529;SHT31;59350;51.520;5.988;2022-07-23T08:00:09;28.55;40.00
71529;SHT31;59350;51.520;5.988;2022-07-23T08:02:48;29.47;38.52
71529;SHT31;59350;51.520;5.988;2022-07-23T08:05:14;28.89;40.37
71529;SHT31;59350;51.520;5.988;2022-07-23T08:07:40;29.31;39.46
71529;SHT31;59350;51.520;5.988;2022-07-23T08:10:08;29.07;37.37
71529;SHT31;59350;51.520;5.988;2022-07-23T08:15:05;28.29;39.72
71529;SHT31;59350;51.520;5.988;2022-07-23T08:17:30;27.43;41.33
71529;SHT31;59350;51.520;5.988;2022-07-23T08:19:55;28.39;40.95
71529;SHT31;59350;51.520;5.988;2022-07-23T08:22:21;28.72;39.60
71529;SHT31;59350;51.520;5.988;2022-07-23T08:24:46;28.97;39.93
71529;SHT31;59350;51.520;5.988;2022-07-23T08:27:11;29.13;38.74
71529;SHT31;59350;51.520;5.988;2022-07-23T08:29:36;29.13;39.13
71529;SHT31;59350;51.520;5.988;2022-07-23T08:32:02;28.99;38.94
71529;SHT31;59350;51.520;5.988;2022-07-23T08:34:27;29.15;38.18
71529;SHT31;59350;51.520;5.988;2022-07-23T08:36:52;29.41;37.74
71529;SHT31;59350;51.520;5.988;2022-07-23T08:39:18;30.16;38.33
71529;SHT31;59350;51.520;5.988;2022-07-23T08:41:43;30.54;37.39
71529;SHT31;59350;51.520;5.988;2022-07-23T08:44:08;30.56;36.95
71529;SHT31;59350;51.520;5.988;2022-07-23T08:46:35;30.94;36.48
71529;SHT31;59350;51.520;5.988;2022-07-23T08:49:01;31.33;35.52
71529;SHT31;59350;51.520;5.988;2022-07-23T08:51:27;30.39;36.32
71529;SHT31;59350;51.520;5.988;2022-07-23T08:53:56;29.78;36.70
71529;SHT31;59350;51.520;5.988;2022-07-23T08:56:21;29.99;36.43
71529;SHT31;59350;51.520;5.988;2022-07-23T08:58:46;29.73;37.44
71529;SHT31;59350;51.520;5.988;2022-07-23T09:01:12;30.10;37.33
71529;SHT31;59350;51.520;5.988;2022-07-23T09:03:39;30.57;37.23
71529;SHT31;59350;51.520;5.988;2022-07-23T09:06:04;30.40;36.92
71529;SHT31;59350;51.520;5.988;2022-07-23T09:11:00;30.57;35.83
71529;SHT31;59350;51.520;5.988;2022-07-23T09:13:36;30.50;36.88
71529;SHT31;59350;51.520;5.988;2022-07-23T09:18:34;27.51;42.66
71529;SHT31;59350;51.520;5.988;2022-07-23T09:21:17;28.18;42.39
71529;SHT31;59350;51.520;5.988;2022-07-23T09:26:30;28.63;40.40
71529;SHT31;59350;51.520;5.988;2022-07-23T09:29:10;28.60;38.89
71529;SHT31;59350;51.520;5.988;2022-07-23T09:36:42;28.34;40.50
71529;SHT31;59350;51.520;5.988;2022-07-23T09:39:08;28.29;40.55
71529;SHT31;59350;51.520;5.988;2022-07-23T09:41:36;28.21;41.10
71529;SHT31;59350;51.520;5.988;2022-07-23T09:44:07;27.73;41.05
71529;SHT31;59350;51.520;5.988;2022-07-23T09:46:34;28.45;41.38
71529;SHT31;59350;51.520;5.988;2022-07-23T09:49:10;28.53;39.67
71529;SHT31;59350;51.520;5.988;2022-07-23T09:51:56;28.82;39.59
71529;SHT31;59350;51.520;5.988;2022-07-23T09:56:59;29.23;38.72
71529;SHT31;59350;51.520;5.988;2022-07-23T09:59:27;29.51;37.58
71529;SHT31;59350;51.520;5.988;2022-07-23T10:01:55;29.33;38.60
71529;SHT31;59350;51.520;5.988;2022-07-23T10:04:22;28.73;38.83
71529;SHT31;59350;51.520;5.988;2022-07-23T10:06:52;29.00;37.93
71529;SHT31;59350;51.520;5.988;2022-07-23T10:09:26;29.52;38.15
71529;SHT31;59350;51.520;5.988;2022-07-23T10:11:55;29.72;37.61
71529;SHT31;59350;51.520;5.988;2022-07-23T10:14:24;30.14;37.69
71529;SHT31;59350;51.520;5.988;2022-07-23T10:16:49;29.48;37.41
71529;SHT31;59350;51.520;5.988;2022-07-23T10:19:16;29.72;37.70
71529;SHT31;59350;51.520;5.988;2022-07-23T10:21:48;29.93;37.62
71529;SHT31;59350;51.520;5.988;2022-07-23T10:24:33;29.82;37.34
71529;SHT31;59350;51.520;5.988;2022-07-23T10:35:22;28.74;37.43
71529;SHT31;59350;51.520;5.988;2022-07-23T10:37:55;28.36;37.94
71529;SHT31;59350;51.520;5.988;2022-07-23T10:40:22;28.05;38.39
71529;SHT31;59350;51.520;5.988;2022-07-23T10:42:50;28.09;39.46
71529;SHT31;59350;51.520;5.988;2022-07-23T10:45:36;28.41;38.93
71529;SHT31;59350;51.520;5.988;2022-07-23T10:48:31;28.65;39.52
71529;SHT31;59350;51.520;5.988;2022-07-23T10:51:13;28.90;39.37
71529;SHT31;59350;51.520;5.988;2022-07-23T10:59:21;28.06;38.10
71529;SHT31;59350;51.520;5.988;2022-07-23T11:01:46;28.12;39.08
71529;SHT31;59350;51.520;5.988;2022-07-23T11:04:12;27.80;39.86
71529;SHT31;59350;51.520;5.988;2022-07-23T11:09:42;26.58;41.00
71529;SHT31;59350;51.520;5.988;2022-07-23T11:15:05;25.70;44.85
71529;SHT31;59350;51.520;5.988;2022-07-23T11:22:47;25.14;46.69
71529;SHT31;59350;51.520;5.988;2022-07-23T11:25:34;25.35;47.36
71529;SHT31;59350;51.520;5.988;2022-07-23T11:28:14;25.45;44.91
71529;SHT31;59350;51.520;5.988;2022-07-23T11:30:47;25.11;43.89
71529;SHT31;59350;51.520;5.988;2022-07-23T11:35:41;25.28;44.81
71529;SHT31;59350;51.520;5.988;2022-07-23T11:38:17;25.27;43.02
71529;SHT31;59350;51.520;5.988;2022-07-23T11:40:48;25.08;44.66
71529;SHT31;59350;51.520;5.988;2022-07-23T11:43:14;24.86;44.25
71529;SHT31;59350;51.520;5.988;2022-07-23T11:45:44;24.70;44.03
71529;SHT31;59350;51.520;5.988;2022-07-23T11:48:17;24.59;43.37
71529;SHT31;59350;51.520;5.988;2022-07-23T11:50:43;24.70;43.76
71529;SHT31;59350;51.520;5.988;2022-07-23T11:53:08;24.66;43.25
71529;SHT31;59350;51.520;5.988;2022-07-23T11:55:34;24.70;45.63
71529;SHT31;59350;51.520;5.988;2022-07-23T11:57:59;24.69;43.84
71529;SHT31;59350;51.520;5.988;2022-07-23T12:00:27;24.74;44.23
71529;SHT31;59350;51.520;5.988;2022-07-23T12:02:56;24.64;44.10
71529;SHT31;59350;51.520;5.988;2022-07-23T12:05:26;24.60;45.39
71529;SHT31;59350;51.520;5.988;2022-07-23T12:07:53;24.64;45.64
71529;SHT31;59350;51.520;5.988;2022-07-23T12:12:51;24.52;45.68
71529;SHT31;59350;51.520;5.988;2022-07-23T12:15:19;24.52;45.69
71529;SHT31;59350;51.520;5.988;2022-07-23T12:17:47;24.49;44.19
71529;SHT31;59350;51.520;5.988;2022-07-23T12:20:15;24.46;43.22
71529;SHT31;59350;51.520;5.988;2022-07-23T12:22:43;24.40;44.30
71529;SHT31;59350;51.520;5.988;2022-07-23T12:25:11;24.48;44.14
71529;SHT31;59350;51.520;5.988;2022-07-23T12:27:37;24.32;43.84
71529;SHT31;59350;51.520;5.988;2022-07-23T12:32:46;24.39;42.77
71529;SHT31;59350;51.520;5.988;2022-07-23T12:35:12;24.32;45.55
71529;SHT31;59350;51.520;5.988;2022-07-23T12:37:39;24.28;45.77
71529;SHT31;59350;51.520;5.988;2022-07-23T12:42:53;24.70;46.96
71529;SHT31;59350;51.520;5.988;2022-07-23T12:45:19;24.86;46.16
71529;SHT31;59350;51.520;5.988;2022-07-23T12:48:04;24.91;45.65
71529;SHT31;59350;51.520;5.988;2022-07-23T12:53:21;24.66;44.91
71529;SHT31;59350;51.520;5.988;2022-07-23T12:55:47;24.40;45.64
71529;SHT31;59350;51.520;5.988;2022-07-23T12:58:18;24.35;46.56
71529;SHT31;59350;51.520;5.988;2022-07-23T13:01:04;24.23;47.67
71529;SHT31;59350;51.520;5.988;2022-07-23T13:03:33;24.37;47.67
71529;SHT31;59350;51.520;5.988;2022-07-23T13:06:00;24.32;48.41
71529;SHT31;59350;51.520;5.988;2022-07-23T13:08:28;24.43;47.99
71529;SHT31;59350;51.520;5.988;2022-07-23T13:10:54;24.66;49.05
71529;SHT31;59350;51.520;5.988;2022-07-23T13:13:24;24.71;48.42
71529;SHT31;59350;51.520;5.988;2022-07-23T13:15:49;24.80;48.10
71529;SHT31;59350;51.520;5.988;2022-07-23T13:18:15;24.95;47.31
71529;SHT31;59350;51.520;5.988;2022-07-23T13:20:42;24.92;46.97
71529;SHT31;59350;51.520;5.988;2022-07-23T13:23:07;24.90;47.49
71529;SHT31;59350;51.520;5.988;2022-07-23T13:25:33;24.87;47.22
71529;SHT31;59350;51.520;5.988;2022-07-23T13:27:59;24.84;47.65
71529;SHT31;59350;51.520;5.988;2022-07-23T13:30:24;24.79;46.49
71529;SHT31;59350;51.520;5.988;2022-07-23T13:32:49;24.70;46.17
71529;SHT31;59350;51.520;5.988;2022-07-23T13:35:15;24.73;47.45
71529;SHT31;59350;51.520;5.988;2022-07-23T13:37:40;24.71;46.75
71529;SHT31;59350;51.520;5.988;2022-07-23T13:40:06;24.83;47.96
71529;SHT31;59350;51.520;5.988;2022-07-23T13:42:32;25.00;48.49
71529;SHT31;59350;51.520;5.988;2022-07-23T13:44:57;25.12;47.10
71529;SHT31;59350;51.520;5.988;2022-07-23T13:47:22;25.19;46.93
71529;SHT31;59350;51.520;5.988;2022-07-23T13:49:48;25.19;46.46
71529;SHT31;59350;51.520;5.988;2022-07-23T13:52:13;25.24;46.58
71529;SHT31;59350;51.520;5.988;2022-07-23T13:54:38;25.27;46.28
71529;SHT31;59350;51.520;5.988;2022-07-23T13:57:04;25.38;45.99
71529;SHT31;59350;51.520;5.988;2022-07-23T13:59:30;25.27;45.57
71529;SHT31;59350;51.520;5.988;2022-07-23T14:01:55;25.28;45.52
71529;SHT31;59350;51.520;5.988;2022-07-23T14:04:21;25.34;45.25
71529;SHT31;59350;51.520;5.988;2022-07-23T14:06:46;25.28;45.15
71529;SHT31;59350;51.520;5.988;2022-07-23T14:09:12;25.21;45.70
71529;SHT31;59350;51.520;5.988;2022-07-23T14:11:37;25.15;45.80
71529;SHT31;59350;51.520;5.988;2022-07-23T14:14:04;25.11;46.29
71529;SHT31;59350;51.520;5.988;2022-07-23T14:16:29;25.10;47.03
71529;SHT31;59350;51.520;5.988;2022-07-23T14:18:55;25.18;46.38
71529;SHT31;59350;51.520;5.988;2022-07-23T14:21:20;25.24;46.17
71529;SHT31;59350;51.520;5.988;2022-07-23T14:23:45;25.35;46.20
71529;SHT31;59350;51.520;5.988;2022-07-23T14:26:11;25.38;45.31
71529;SHT31;59350;51.520;5.988;2022-07-23T14:28:36;25.38;44.99
71529;SHT31;59350;51.520;5.988;2022-07-23T14:31:01;25.35;44.84
71529;SHT31;59350;51.520;5.988;2022-07-23T14:33:27;25.38;44.94
71529;SHT31;59350;51.520;5.988;2022-07-23T14:35:53;25.39;45.32
71529;SHT31;59350;51.520;5.988;2022-07-23T14:38:18;25.49;46.12
71529;SHT31;59350;51.520;5.988;2022-07-23T14:40:43;25.58;46.52
71529;SHT31;59350;51.520;5.988;2022-07-23T14:43:09;25.58;45.24
71529;SHT31;59350;51.520;5.988;2022-07-23T14:45:34;25.56;45.08
71529;SHT31;59350;51.520;5.988;2022-07-23T14:47:59;25.73;46.12
71529;SHT31;59350;51.520;5.988;2022-07-23T14:50:27;25.83;46.17
71529;SHT31;59350;51.520;5.988;2022-07-23T14:52:53;25.87;45.69
71529;SHT31;59350;51.520;5.988;2022-07-23T14:55:18;25.87;44.86
71529;SHT31;59350;51.520;5.988;2022-07-23T14:57:43;25.66;44.49
71529;SHT31;59350;51.520;5.988;2022-07-23T15:00:09;25.59;45.33
71529;SHT31;59350;51.520;5.988;2022-07-23T15:02:35;25.48;45.80
71529;SHT31;59350;51.520;5.988;2022-07-23T15:05:00;25.37;46.16
71529;SHT31;59350;51.520;5.988;2022-07-23T15:07:27;25.25;46.12
71529;SHT31;59350;51.520;5.988;2022-07-23T15:09:52;25.35;46.34
71529;SHT31;59350;51.520;5.988;2022-07-23T15:12:17;25.24;46.89
71529;SHT31;59350;51.520;5.988;2022-07-23T15:14:43;25.11;45.49
71529;SHT31;59350;51.520;5.988;2022-07-23T15:17:09;25.00;46.01
71529;SHT31;59350;51.520;5.988;2022-07-23T15:19:34;24.95;46.71
71529;SHT31;59350;51.520;5.988;2022-07-23T15:22:00;24.90;47.28
71529;SHT31;59350;51.520;5.988;2022-07-23T15:24:25;24.97;47.64
71529;SHT31;59350;51.520;5.988;2022-07-23T15:26:50;25.00;47.54
71529;SHT31;59350;51.520;5.988;2022-07-23T15:29:16;25.00;47.41
71529;SHT31;59350;51.520;5.988;2022-07-23T15:31:41;25.00;46.82
71529;SHT31;59350;51.520;5.988;2022-07-23T15:34:07;25.10;47.20
71529;SHT31;59350;51.520;5.988;2022-07-23T15:36:32;25.03;46.49
71529;SHT31;59350;51.520;5.988;2022-07-23T15:38:57;24.92;47.35
71529;SHT31;59350;51.520;5.988;2022-07-23T15:41:23;24.88;47.86
71529;SHT31;59350;51.520;5.988;2022-07-23T15:43:49;24.74;47.40
71529;SHT31;59350;51.520;5.988;2022-07-23T15:46:16;24.81;47.50
71529;SHT31;59350;51.520;5.988;2022-07-23T15:48:42;24.92;48.81
71529;SHT31;59350;51.520;5.988;2022-07-23T15:51:07;24.87;47.85
71529;SHT31;59350;51.520;5.988;2022-07-23T15:53:33;24.74;46.99
71529;SHT31;59350;51.520;5.988;2022-07-23T15:55:59;24.80;47.84
71529;SHT31;59350;51.520;5.988;2022-07-23T15:58:27;24.87;48.18
71529;SHT31;59350;51.520;5.988;2022-07-23T16:00:52;24.84;48.27
71529;SHT31;59350;51.520;5.988;2022-07-23T16:03:18;24.84;48.21
71529;SHT31;59350;51.520;5.988;2022-07-23T16:05:43;24.84;48.12
71529;SHT31;59350;51.520;5.988;2022-07-23T16:08:08;24.84;47.95
71529;SHT31;59350;51.520;5.988;2022-07-23T16:10:34;24.74;47.77
71529;SHT31;59350;51.520;5.988;2022-07-23T16:12:59;24.56;47.65
71529;SHT31;59350;51.520;5.988;2022-07-23T16:15:25;24.49;48.37
71529;SHT31;59350;51.520;5.988;2022-07-23T16:17:50;24.49;48.63
71529;SHT31;59350;51.520;5.988;2022-07-23T16:20:16;24.44;48.69
71529;SHT31;59350;51.520;5.988;2022-07-23T16:22:41;24.39;48.81
71529;SHT31;59350;51.520;5.988;2022-07-23T16:25:07;24.39;48.77
71529;SHT31;59350;51.520;5.988;2022-07-23T16:27:34;24.43;49.21
71529;SHT31;59350;51.520;5.988;2022-07-23T16:30:01;24.44;48.70
71529;SHT31;59350;51.520;5.988;2022-07-23T16:32:26;24.50;48.30
71529;SHT31;59350;51.520;5.988;2022-07-23T16:34:51;24.59;47.93
71529;SHT31;59350;51.520;5.988;2022-07-23T16:37:17;24.56;47.49
71529;SHT31;59350;51.520;5.988;2022-07-23T16:39:42;24.61;48.17
71529;SHT31;59350;51.520;5.988;2022-07-23T16:42:08;24.60;47.87
71529;SHT31;59350;51.520;5.988;2022-07-23T16:44:33;24.66;47.63
71529;SHT31;59350;51.520;5.988;2022-07-23T16:46:59;24.59;47.85
71529;SHT31;59350;51.520;5.988;2022-07-23T16:49:24;24.55;48.03
71529;SHT31;59350;51.520;5.988;2022-07-23T16:51:49;24.57;48.87
71529;SHT31;59350;51.520;5.988;2022-07-23T16:54:15;24.55;47.90
71529;SHT31;59350;51.520;5.988;2022-07-23T16:56:42;24.55;48.68
71529;SHT31;59350;51.520;5.988;2022-07-23T16:59:07;24.52;49.07
71529;SHT31;59350;51.520;5.988;2022-07-23T17:01:32;24.44;47.07
71529;SHT31;59350;51.520;5.988;2022-07-23T17:03:58;24.48;47.34
71529;SHT31;59350;51.520;5.988;2022-07-23T17:06:23;24.48;47.14
71529;SHT31;59350;51.520;5.988;2022-07-23T17:08:48;24.44;47.78
71529;SHT31;59350;51.520;5.988;2022-07-23T17:11:14;24.43;47.43
71529;SHT31;59350;51.520;5.988;2022-07-23T17:13:39;24.41;48.30
71529;SHT31;59350;51.520;5.988;2022-07-23T17:16:05;24.35;48.64
71529;SHT31;59350;51.520;5.988;2022-07-23T17:18:30;24.36;48.47
71529;SHT31;59350;51.520;5.988;2022-07-23T17:20:55;24.35;48.69
71529;SHT31;59350;51.520;5.988;2022-07-23T17:23:21;24.32;49.22
71529;SHT31;59350;51.520;5.988;2022-07-23T17:25:46;24.29;50.04
71529;SHT31;59350;51.520;5.988;2022-07-23T17:28:12;24.23;48.68
71529;SHT31;59350;51.520;5.988;2022-07-23T17:30:37;24.23;49.34
71529;SHT31;59350;51.520;5.988;2022-07-23T17:33:03;24.16;48.59
71529;SHT31;59350;51.520;5.988;2022-07-23T17:35:28;24.09;49.37
71529;SHT31;59350;51.520;5.988;2022-07-23T17:37:54;24.08;49.63
71529;SHT31;59350;51.520;5.988;2022-07-23T17:40:21;24.04;49.15
71529;SHT31;59350;51.520;5.988;2022-07-23T17:42:46;24.06;49.30
71529;SHT31;59350;51.520;5.988;2022-07-23T17:45:11;23.99;49.82
71529;SHT31;59350;51.520;5.988;2022-07-23T17:47:43;24.02;49.29
71529;SHT31;59350;51.520;5.988;2022-07-23T17:50:10;23.98;49.22
71529;SHT31;59350;51.520;5.988;2022-07-23T17:52:50;23.91;50.08
71529;SHT31;59350;51.520;5.988;2022-07-23T17:55:16;23.89;52.62
71529;SHT31;59350;51.520;5.988;2022-07-23T17:57:41;23.84;50.04
71529;SHT31;59350;51.520;5.988;2022-07-23T18:00:09;23.81;50.20
71529;SHT31;59350;51.520;5.988;2022-07-23T18:02:35;23.84;50.49
71529;SHT31;59350;51.520;5.988;2022-07-23T18:05:00;23.79;52.89
71529;SHT31;59350;51.520;5.988;2022-07-23T18:07:26;23.75;52.64
71529;SHT31;59350;51.520;5.988;2022-07-23T18:09:51;23.70;50.52
71529;SHT31;59350;51.520;5.988;2022-07-23T18:12:17;23.65;51.23
71529;SHT31;59350;51.520;5.988;2022-07-23T18:14:42;23.68;51.20
71529;SHT31;59350;51.520;5.988;2022-07-23T18:17:08;23.62;52.02
71529;SHT31;59350;51.520;5.988;2022-07-23T18:19:33;23.54;54.26
71529;SHT31;59350;51.520;5.988;2022-07-23T18:21:58;23.51;54.19
71529;SHT31;59350;51.520;5.988;2022-07-23T18:24:24;23.57;51.82
71529;SHT31;59350;51.520;5.988;2022-07-23T18:26:50;23.58;51.93
71529;SHT31;59350;51.520;5.988;2022-07-23T18:29:16;23.58;51.52
71529;SHT31;59350;51.520;5.988;2022-07-23T18:31:42;23.55;51.90
71529;SHT31;59350;51.520;5.988;2022-07-23T18:34:07;23.53;52.04
71529;SHT31;59350;51.520;5.988;2022-07-23T18:36:33;23.44;53.13
71529;SHT31;59350;51.520;5.988;2022-07-23T18:38:58;23.41;52.20
71529;SHT31;59350;51.520;5.988;2022-07-23T18:41:23;23.43;52.18
71529;SHT31;59350;51.520;5.988;2022-07-23T18:43:51;23.47;52.27
71529;SHT31;59350;51.520;5.988;2022-07-23T18:46:16;23.47;51.63
71529;SHT31;59350;51.520;5.988;2022-07-23T18:48:42;23.49;52.05
71529;SHT31;59350;51.520;5.988;2022-07-23T18:51:08;23.41;52.22
71529;SHT31;59350;51.520;5.988;2022-07-23T18:53:34;23.37;52.40
71529;SHT31;59350;51.520;5.988;2022-07-23T18:55:59;23.26;52.90
71529;SHT31;59350;51.520;5.988;2022-07-23T18:58:24;23.20;54.70
71529;SHT31;59350;51.520;5.988;2022-07-23T19:00:50;23.16;53.47
71529;SHT31;59350;51.520;5.988;2022-07-23T19:03:15;23.13;53.34
71529;SHT31;59350;51.520;5.988;2022-07-23T19:05:41;23.09;54.08
71529;SHT31;59350;51.520;5.988;2022-07-23T19:08:06;23.04;54.54
71529;SHT31;59350;51.520;5.988;2022-07-23T19:10:33;22.92;56.47
71529;SHT31;59350;51.520;5.988;2022-07-23T19:12:59;22.82;56.69
71529;SHT31;59350;51.520;5.988;2022-07-23T19:15:24;22.71;55.29
71529;SHT31;59350;51.520;5.988;2022-07-23T19:17:49;22.73;55.39
71529;SHT31;59350;51.520;5.988;2022-07-23T19:20:15;22.73;55.30
71529;SHT31;59350;51.520;5.988;2022-07-23T19:22:40;22.66;55.65
71529;SHT31;59350;51.520;5.988;2022-07-23T19:25:06;22.58;56.69
71529;SHT31;59350;51.520;5.988;2022-07-23T19:27:33;22.52;57.74
71529;SHT31;59350;51.520;5.988;2022-07-23T19:29:58;22.41;58.90
71529;SHT31;59350;51.520;5.988;2022-07-23T19:32:24;22.32;58.39
71529;SHT31;59350;51.520;5.988;2022-07-23T19:34:49;22.20;58.25
71529;SHT31;59350;51.520;5.988;2022-07-23T19:37:15;22.13;57.87
71529;SHT31;59350;51.520;5.988;2022-07-23T19:39:42;22.07;57.99
71529;SHT31;59350;51.520;5.988;2022-07-23T19:42:08;22.01;58.32
71529;SHT31;59350;51.520;5.988;2022-07-23T19:44:33;21.97;58.60
71529;SHT31;59350;51.520;5.988;2022-07-23T19:46:59;21.87;58.78
71529;SHT31;59350;51.520;5.988;2022-07-23T19:49:25;21.80;60.98
71529;SHT31;59350;51.520;5.988;2022-07-23T19:51:50;21.72;60.70
71529;SHT31;59350;51.520;5.988;2022-07-23T19:54:15;21.63;61.74
71529;SHT31;59350;51.520;5.988;2022-07-23T19:56:41;21.56;60.08
71529;SHT31;59350;51.520;5.988;2022-07-23T19:59:06;21.47;60.08
71529;SHT31;59350;51.520;5.988;2022-07-23T20:01:32;21.46;60.46
71529;SHT31;59350;51.520;5.988;2022-07-23T20:03:58;21.42;61.89
71529;SHT31;59350;51.520;5.988;2022-07-23T20:06:23;21.36;62.85
71529;SHT31;59350;51.520;5.988;2022-07-23T20:08:49;21.28;62.66
71529;SHT31;59350;51.520;5.988;2022-07-23T20:11:14;21.23;63.07
71529;SHT31;59350;51.520;5.988;2022-07-23T20:13:39;21.19;63.62
71529;SHT31;59350;51.520;5.988;2022-07-23T20:16:06;21.11;63.85
71529;SHT31;59350;51.520;5.988;2022-07-23T20:18:31;21.02;63.81
71529;SHT31;59350;51.520;5.988;2022-07-23T20:20:57;20.99;64.48
71529;SHT31;59350;51.520;5.988;2022-07-23T20:23:23;20.94;64.54
71529;SHT31;59350;51.520;5.988;2022-07-23T20:25:49;20.90;64.92
71529;SHT31;59350;51.520;5.988;2022-07-23T20:28:15;20.83;65.66
71529;SHT31;59350;51.520;5.988;2022-07-23T20:30:40;20.77;65.73
71529;SHT31;59350;51.520;5.988;2022-07-23T20:33:07;20.73;65.91
71529;SHT31;59350;51.520;5.988;2022-07-23T20:35:33;20.63;66.96
71529;SHT31;59350;51.520;5.988;2022-07-23T20:37:58;20.58;66.68
71529;SHT31;59350;51.520;5.988;2022-07-23T20:40:23;20.53;66.99
71529;SHT31;59350;51.520;5.988;2022-07-23T20:42:48;20.46;67.47
71529;SHT31;59350;51.520;5.988;2022-07-23T20:45:14;20.44;67.68
71529;SHT31;59350;51.520;5.988;2022-07-23T20:47:40;20.36;68.23
71529;SHT31;59350;51.520;5.988;2022-07-23T20:50:06;20.33;69.49